createdAt,value
2022-11-22T00:00:18.336Z,99417.22
2022-11-22T00:03:20.031Z,99416.38
2022-11-22T00:06:21.558Z,99419.81
2022-11-22T00:09:23.079Z,99427.56
2022-11-22T00:12:24.636Z,99429.31
2022-11-22T00:15:26.308Z,99422.34
2022-11-22T00:18:29.168Z,99417.97
2022-11-22T00:21:30.739Z,99420.50
2022-11-22T00:24:32.597Z,99410.06
2022-11-22T00:27:34.129Z,99401.34
2022-11-22T00:30:35.890Z,99410.06
2022-11-22T00:33:37.457Z,99392.56
2022-11-22T00:36:38.989Z,99383.00
2022-11-22T00:39:40.551Z,99375.03
2022-11-22T00:42:42.100Z,99369.75
2022-11-22T00:45:43.646Z,99361.00
2022-11-22T00:48:45.173Z,99360.94
2022-11-22T00:51:46.792Z,99362.56
2022-11-22T00:54:53.214Z,99359.06
2022-11-22T00:57:56.438Z,99358.13
2022-11-22T01:00:58.035Z,99362.44
2022-11-22T01:03:59.663Z,99356.38
2022-11-22T01:07:01.342Z,99361.56
2022-11-22T01:10:02.943Z,99356.31
2022-11-22T01:13:05.179Z,99347.63
2022-11-22T01:16:09.062Z,99345.81
2022-11-22T01:19:10.874Z,99351.03
2022-11-22T01:22:12.434Z,99352.66
2022-11-22T01:25:13.949Z,99349.97
2022-11-22T01:28:15.490Z,99349.94
2022-11-22T01:31:17.092Z,99358.53
2022-11-22T01:34:18.760Z,99355.94
2022-11-22T01:37:20.299Z,99357.66
2022-11-22T01:40:21.862Z,99361.94
2022-11-22T01:43:26.378Z,99357.50
2022-11-22T01:46:39.315Z,99353.09
2022-11-22T01:49:40.813Z,99348.69
2022-11-22T01:52:42.371Z,99348.69
2022-11-22T01:55:45.159Z,99351.25
2022-11-22T01:58:50.868Z,99339.09
2022-11-22T02:01:53.189Z,99333.81
2022-11-22T02:04:57.262Z,99331.13
2022-11-22T02:08:10.748Z,99339.75
2022-11-22T02:11:13.527Z,99333.66
2022-11-22T02:14:17.028Z,99325.81
2022-11-22T02:17:18.573Z,99326.69
2022-11-22T02:20:20.455Z,99322.31
2022-11-22T02:23:56.844Z,99318.78
2022-11-22T02:26:58.699Z,99320.47
2022-11-22T02:30:00.240Z,99325.63
2022-11-22T02:33:01.915Z,99324.72
2022-11-22T02:36:03.626Z,99302.84
2022-11-22T02:39:07.114Z,99301.94
2022-11-22T02:42:08.638Z,99284.47
2022-11-22T02:45:10.631Z,99287.91
2022-11-22T02:48:15.224Z,99293.03
2022-11-22T02:51:19.975Z,99297.38
2022-11-22T02:54:21.983Z,99286.84
2022-11-22T02:57:23.564Z,99280.69
2022-11-22T03:00:25.193Z,99291.94
2022-11-22T03:03:26.792Z,99291.00
2022-11-22T03:06:28.418Z,99282.25
2022-11-22T03:09:30.394Z,99290.00
2022-11-22T03:12:32.166Z,99280.28
2022-11-22T03:15:33.740Z,99275.06
2022-11-22T03:18:36.284Z,99278.44
2022-11-22T03:21:39.214Z,99288.75
2022-11-22T03:24:40.943Z,99265.16
2022-11-22T03:27:42.506Z,99279.84
2022-11-22T03:30:44.003Z,99261.53
2022-11-22T03:33:45.544Z,99277.97
2022-11-22T03:36:47.058Z,99281.44
2022-11-22T03:39:48.604Z,99274.38
2022-11-22T03:42:50.171Z,99260.44
2022-11-22T03:45:52.036Z,99262.16
2022-11-22T03:48:53.552Z,99264.78
2022-11-22T03:51:55.099Z,99258.59
2022-11-22T03:54:56.627Z,99248.91
2022-11-22T03:57:58.192Z,99234.94
2022-11-22T04:01:00.169Z,99226.19
2022-11-22T04:04:01.759Z,99242.66
2022-11-22T04:07:03.403Z,99244.41
2022-11-22T04:10:06.026Z,99242.56
2022-11-22T04:13:07.616Z,99247.75
2022-11-22T04:16:09.172Z,99240.72
2022-11-22T04:19:10.771Z,99246.75
2022-11-22T04:22:12.315Z,99243.22
2022-11-22T04:25:13.963Z,99249.22
2022-11-22T04:28:17.154Z,99239.59
2022-11-22T04:31:37.081Z,99245.69
2022-11-22T04:34:38.678Z,99243.06
2022-11-22T04:37:40.259Z,99239.47
2022-11-22T04:40:41.839Z,99251.63
2022-11-22T04:44:01.987Z,99255.06
2022-11-22T04:47:03.556Z,99245.41
2022-11-22T04:50:26.315Z,99250.56
2022-11-22T04:53:28.698Z,99248.81
2022-11-22T04:56:30.236Z,99246.09
2022-11-22T04:59:32.083Z,99234.75
2022-11-22T05:02:33.875Z,99240.66
2022-11-22T05:05:40.168Z,99245.81
2022-11-22T05:08:41.792Z,99247.50
2022-11-22T05:11:43.549Z,99257.97
2022-11-22T05:14:45.107Z,99254.34
2022-11-22T05:17:46.686Z,99265.69
2022-11-22T05:20:48.508Z,99262.16
2022-11-22T05:23:55.998Z,99272.53
2022-11-22T05:26:57.517Z,99265.53
2022-11-22T05:29:59.055Z,99275.06
2022-11-22T05:33:00.606Z,99280.28
2022-11-22T05:36:02.179Z,99273.31
2022-11-22T05:39:04.599Z,99272.44
2022-11-22T05:42:06.251Z,99269.84
2022-11-22T05:45:08.521Z,99268.06
2022-11-22T05:48:10.163Z,99267.22
2022-11-22T05:51:23.575Z,99274.06
2022-11-22T05:54:25.149Z,99269.63
2022-11-22T05:57:27.360Z,99274.78
2022-11-22T06:00:29.923Z,99281.78
2022-11-22T06:03:31.633Z,99284.84
2022-11-22T06:06:33.192Z,99276.31
2022-11-22T06:09:34.856Z,99281.69
2022-11-22T06:12:36.417Z,99286.91
2022-11-22T06:15:37.951Z,99288.75
2022-11-22T06:18:39.569Z,99283.53
2022-11-22T06:21:41.131Z,99283.53
2022-11-22T06:24:42.975Z,99278.31
2022-11-22T06:27:44.534Z,99280.91
2022-11-22T06:30:46.146Z,99279.97
2022-11-22T06:33:47.901Z,99281.69
2022-11-22T06:36:49.456Z,99290.31
2022-11-22T06:39:50.997Z,99289.41
2022-11-22T06:42:52.988Z,99284.03
2022-11-22T06:45:59.190Z,99278.63
2022-11-22T06:49:00.727Z,99276.81
2022-11-22T06:52:02.300Z,99281.06
2022-11-22T06:55:07.898Z,99275.81
2022-11-22T06:58:09.800Z,99267.19
2022-11-22T07:01:16.203Z,99271.59
2022-11-22T07:04:17.836Z,99265.56
2022-11-22T07:07:19.490Z,99267.41
2022-11-22T07:10:21.056Z,99268.34
2022-11-22T07:13:22.633Z,99268.34
2022-11-22T07:16:24.161Z,99272.59
2022-11-22T07:19:25.719Z,99276.81
2022-11-22T07:22:27.253Z,99280.97
2022-11-22T07:25:28.804Z,99291.41
2022-11-22T07:28:30.388Z,99287.41
2022-11-22T07:31:32.036Z,99286.69
2022-11-22T07:34:33.559Z,99301.50
2022-11-22T07:37:35.099Z,99313.28
2022-11-22T07:40:36.910Z,99318.34
2022-11-22T07:43:38.707Z,99326.03
2022-11-22T07:46:40.275Z,99332.53
2022-11-22T07:49:41.791Z,99336.31
2022-11-22T07:52:43.451Z,99342.81
2022-11-22T07:55:45.098Z,99332.78
2022-11-22T07:58:46.705Z,99333.94
2022-11-22T08:01:48.302Z,99338.63
2022-11-22T08:04:49.925Z,99344.16
2022-11-22T08:07:53.605Z,99342.63
2022-11-22T08:10:55.565Z,99343.69
2022-11-22T08:13:57.599Z,99354.03
2022-11-22T08:16:59.150Z,99351.25
2022-11-22T08:20:00.727Z,99354.63
2022-11-22T08:23:02.297Z,99350.47
2022-11-22T08:26:05.168Z,99348.91
2022-11-22T08:29:12.676Z,99365.66
2022-11-22T08:32:15.764Z,99367.59
2022-11-22T08:35:17.751Z,99372.00
2022-11-22T08:38:19.291Z,99365.03
2022-11-22T08:41:21.652Z,99364.28
2022-11-22T08:44:23.203Z,99369.53
2022-11-22T08:47:24.764Z,99357.28
2022-11-22T08:50:26.291Z,99367.66
2022-11-22T08:53:29.836Z,99372.09
2022-11-22T08:56:31.371Z,99370.22
2022-11-22T08:59:33.857Z,99369.28
2022-11-22T09:02:35.776Z,99376.22
2022-11-22T09:09:22.109Z,99384.84
2022-11-22T09:12:20.643Z,99389.88
2022-11-22T09:15:22.230Z,99394.09
2022-11-22T09:18:23.762Z,99403.69
2022-11-22T09:21:25.319Z,99392.25
2022-11-22T09:24:27.038Z,99389.63
2022-11-22T09:27:28.611Z,99390.41
2022-11-22T09:30:31.419Z,99390.31
2022-11-22T09:33:35.498Z,99391.94
2022-11-22T09:36:37.069Z,99391.03
2022-11-22T09:39:40.504Z,99393.56
2022-11-22T09:43:12.175Z,99394.69
2022-11-22T09:46:29.571Z,99401.41
2022-11-22T09:49:34.387Z,99397.69
2022-11-22T09:52:46.191Z,99393.44
2022-11-22T09:55:51.878Z,99396.25
2022-11-22T09:59:22.606Z,99400.66
2022-11-22T10:02:43.558Z,99398.03
2022-11-22T10:06:00.343Z,99411.06
2022-11-22T10:09:20.545Z,99409.28
2022-11-22T10:12:34.241Z,99409.28
2022-11-22T10:15:50.221Z,99408.34
2022-11-22T10:19:01.672Z,99403.94
2022-11-22T10:22:12.572Z,99403.03
2022-11-22T10:25:34.153Z,99405.56
2022-11-22T10:28:42.981Z,99405.50
2022-11-22T10:31:54.919Z,99406.25
2022-11-22T10:35:21.464Z,99415.75
2022-11-22T10:38:58.655Z,99418.22
2022-11-22T10:42:31.122Z,99409.31
2022-11-22T10:45:54.488Z,99400.44
2022-11-22T10:49:05.920Z,99408.06
2022-11-22T10:52:26.715Z,99399.00
2022-11-22T10:55:59.971Z,99396.03
2022-11-22T10:59:32.653Z,99395.72
2022-11-22T11:02:52.731Z,99403.09
2022-11-22T11:06:49.810Z,99401.66
2022-11-22T11:10:27.437Z,99394.09
2022-11-22T11:13:38.737Z,99398.91
2022-11-22T11:16:40.857Z,99395.00
2022-11-22T11:19:44.474Z,99398.91
2022-11-22T11:23:13.301Z,99388.88
2022-11-22T11:26:35.217Z,99393.78
2022-11-22T11:29:42.805Z,99394.16
2022-11-22T11:32:56.040Z,99389.31
2022-11-22T11:36:02.752Z,99396.13
2022-11-22T11:39:04.414Z,99393.22
2022-11-22T11:42:24.632Z,99388.44
2022-11-22T11:45:31.328Z,99387.22
2022-11-22T11:48:43.594Z,99379.81
2022-11-22T11:51:46.689Z,99388.19
2022-11-22T11:55:00.978Z,99393.91
2022-11-22T11:58:20.881Z,99387.84
2022-11-22T12:01:24.791Z,99385.63
2022-11-22T12:04:30.520Z,99394.84
2022-11-22T12:07:35.173Z,99393.19
2022-11-22T12:10:50.276Z,99390.94
2022-11-22T12:17:30.255Z,99393.53
2022-11-22T12:20:46.498Z,99379.28
2022-11-22T12:24:26.943Z,99386.88
2022-11-22T12:27:25.321Z,99393.13
2022-11-22T12:30:27.095Z,99393.91
2022-11-22T12:33:40.964Z,99390.44
2022-11-22T12:37:07.343Z,99392.00
2022-11-22T12:40:24.481Z,99388.81
2022-11-22T12:43:30.711Z,99395.22
2022-11-22T12:46:42.081Z,99392.81
2022-11-22T12:49:48.441Z,99399.94
2022-11-22T12:53:00.529Z,99390.38
2022-11-22T12:56:43.298Z,99388.66
2022-11-22T13:00:02.530Z,99389.72
2022-11-22T13:03:17.330Z,99386.22
2022-11-22T13:06:24.355Z,99379.50
2022-11-22T13:09:33.362Z,99373.84
2022-11-22T13:12:38.829Z,99374.91
2022-11-22T13:15:41.139Z,99371.81
2022-11-22T13:18:57.533Z,99382.19
2022-11-22T13:22:49.882Z,99383.34
2022-11-22T13:25:57.443Z,99382.88
2022-11-22T13:29:16.917Z,99384.13
2022-11-22T13:32:23.307Z,99384.44
2022-11-22T13:35:36.864Z,99386.44
2022-11-22T13:38:38.434Z,99384.94
2022-11-22T13:41:58.338Z,99388.63
2022-11-22T13:44:59.821Z,99387.13
2022-11-22T13:48:01.395Z,99387.31
2022-11-22T13:51:03.330Z,99387.53
2022-11-22T13:54:33.155Z,99386.75
2022-11-22T13:57:37.378Z,99378.22
2022-11-22T14:00:42.053Z,99392.50
2022-11-22T14:03:43.695Z,99391.78
2022-11-22T14:06:51.199Z,99391.03
2022-11-22T14:09:52.694Z,99401.75
2022-11-22T14:13:06.257Z,99399.31
2022-11-22T14:16:16.772Z,99411.84
2022-11-22T14:19:33.402Z,99414.78
2022-11-22T14:22:56.851Z,99407.16
2022-11-22T14:26:20.265Z,99405.56
2022-11-22T14:29:40.244Z,99401.25
2022-11-22T14:33:03.793Z,99396.16
2022-11-22T14:36:08.108Z,99400.69
2022-11-22T14:40:00.884Z,99392.97
2022-11-22T14:43:16.332Z,99399.47
2022-11-22T14:46:51.073Z,99406.72
2022-11-22T14:49:48.381Z,99397.38
2022-11-22T14:52:50.613Z,99406.66
2022-11-22T14:55:57.288Z,99409.19
2022-11-22T14:59:30.011Z,99412.13
2022-11-22T15:03:14.527Z,99412.50
2022-11-22T15:09:10.679Z,99397.09
2022-11-22T15:09:54.251Z,99401.88
2022-11-22T15:13:05.259Z,99408.41
2022-11-22T15:57:54.387Z,99453.28
2022-11-22T16:01:19.344Z,99442.94
2022-11-22T16:04:23.253Z,99446.69
2022-11-22T16:07:35.710Z,99452.16
2022-11-22T16:10:42.549Z,99446.97
2022-11-22T16:13:44.072Z,99445.47
2022-11-22T16:16:45.667Z,99438.50
2022-11-22T16:19:47.243Z,99443.00
2022-11-22T16:23:09.694Z,99447.53
2022-11-22T16:26:17.342Z,99450.34
2022-11-22T16:29:33.620Z,99450.63
2022-11-22T16:32:35.447Z,99453.44
2022-11-22T16:35:37.697Z,99450.91
2022-11-22T16:38:39.273Z,99451.09
2022-11-22T16:41:40.960Z,99469.59
2022-11-22T16:44:42.503Z,99460.00
2022-11-22T16:47:44.807Z,99461.78
2022-11-22T16:51:15.011Z,99466.28
2022-11-22T16:54:20.974Z,99471.66
2022-11-22T16:57:22.569Z,99471.72
2022-11-22T17:00:24.268Z,99453.47
2022-11-22T17:03:29.724Z,99461.47
2022-11-22T17:06:32.140Z,99455.38
2022-11-22T17:09:34.514Z,99451.13
2022-11-22T17:12:36.215Z,99451.22
2022-11-22T17:15:40.721Z,99453.97
2022-11-22T17:18:42.257Z,99456.66
2022-11-22T17:21:44.440Z,99465.53
2022-11-22T17:24:46.000Z,99465.59
2022-11-22T17:27:51.559Z,99470.00
2022-11-22T17:30:59.553Z,99476.13
2022-11-22T17:34:01.149Z,99476.22
2022-11-22T17:37:02.713Z,99481.53
2022-11-22T17:40:04.746Z,99474.59
2022-11-22T17:43:06.281Z,99487.00
2022-11-22T17:46:07.887Z,99488.03
2022-11-22T17:49:15.356Z,99495.25
2022-11-22T17:52:17.524Z,99497.88
2022-11-22T17:55:19.342Z,99513.81
2022-11-22T17:58:20.944Z,99499.06
2022-11-22T18:01:23.332Z,99498.41
2022-11-22T18:04:24.942Z,99502.97
2022-11-22T18:07:28.658Z,99496.22
2022-11-22T18:10:30.311Z,99507.66
2022-11-22T18:13:34.442Z,99528.03
2022-11-22T18:16:35.960Z,99520.38
2022-11-22T18:19:37.503Z,99519.78
2022-11-22T18:22:39.166Z,99524.44
2022-11-22T18:25:40.757Z,99516.81
2022-11-22T18:28:43.012Z,99517.19
2022-11-22T18:31:53.939Z,99511.22
2022-11-22T18:34:55.789Z,99514.03
2022-11-22T18:37:57.652Z,99517.59
2022-11-22T18:41:00.417Z,99512.50
2022-11-22T18:44:06.979Z,99509.13
2022-11-22T18:47:10.282Z,99518.03
2022-11-22T18:50:12.917Z,99519.91
2022-11-22T18:53:14.460Z,99520.81
2022-11-22T18:56:18.767Z,99529.72
2022-11-22T18:59:20.446Z,99529.72
2022-11-22T19:02:25.861Z,99526.38
2022-11-22T19:05:27.606Z,99528.19
2022-11-22T19:08:29.163Z,99528.25
2022-11-22T19:11:32.221Z,99520.47
2022-11-22T19:14:34.140Z,99520.56
2022-11-22T19:17:37.808Z,99510.13
2022-11-22T19:20:54.746Z,99507.50
2022-11-22T19:23:57.588Z,99507.59
2022-11-22T19:26:59.133Z,99519.97
2022-11-22T19:30:00.732Z,99507.75
2022-11-22T19:33:02.329Z,99499.09
2022-11-22T19:36:07.477Z,99494.72
2022-11-22T19:39:14.132Z,99488.09
2022-11-22T19:42:17.733Z,99483.09
2022-11-22T19:45:19.235Z,99488.59
2022-11-22T19:48:21.236Z,99486.22
2022-11-22T19:51:23.777Z,99487.25
2022-11-22T19:54:25.399Z,99492.50
2022-11-22T19:57:26.949Z,99496.72
2022-11-22T20:00:28.969Z,99490.53
2022-11-22T20:03:30.538Z,99494.88
2022-11-22T20:06:33.519Z,99494.72
2022-11-22T20:09:37.251Z,99498.16
2022-11-22T20:12:38.776Z,99498.94
2022-11-22T20:15:40.314Z,99501.56
2022-11-22T20:18:42.408Z,99503.25
2022-11-22T20:21:44.847Z,99501.38
2022-11-22T20:24:46.469Z,99506.56
2022-11-22T20:27:48.086Z,99503.00
2022-11-22T20:30:49.716Z,99514.19
2022-11-22T20:33:53.283Z,99515.88
2022-11-22T20:36:55.651Z,99501.72
2022-11-22T20:39:57.148Z,99507.84
2022-11-22T20:42:58.698Z,99515.66
2022-11-22T20:46:00.179Z,99510.41
2022-11-22T20:49:01.977Z,99511.22
2022-11-22T20:52:03.598Z,99510.31
2022-11-22T20:55:08.703Z,99503.28
2022-11-22T20:58:10.527Z,99503.19
2022-11-22T21:01:17.865Z,99501.41
2022-11-22T21:04:19.536Z,99494.38
2022-11-22T21:07:21.107Z,99490.88
2022-11-22T21:10:22.675Z,99492.66
2022-11-22T21:13:24.217Z,99497.84
2022-11-22T21:16:27.884Z,99503.13
2022-11-22T21:19:29.426Z,99497.75
2022-11-22T21:22:32.051Z,99498.50
2022-11-22T21:25:33.699Z,99500.22
2022-11-22T21:28:38.761Z,99504.47
2022-11-22T21:31:40.589Z,99497.44
2022-11-22T21:34:42.088Z,99500.81
2022-11-22T21:37:43.658Z,99501.56
2022-11-22T21:40:51.377Z,99506.66
2022-11-22T21:43:55.677Z,99509.13
2022-11-22T21:46:57.182Z,99510.91
2022-11-22T21:49:58.716Z,99515.22
2022-11-22T21:53:00.268Z,99516.94
2022-11-22T21:56:03.579Z,99517.69
2022-11-22T21:59:05.181Z,99505.38
2022-11-22T22:02:06.805Z,99510.56
2022-11-22T22:05:08.668Z,99520.16
2022-11-22T22:08:10.261Z,99518.44
2022-11-22T22:11:12.514Z,99517.41
2022-11-22T22:14:14.789Z,99519.19
2022-11-22T22:17:16.328Z,99512.16
2022-11-22T22:20:17.894Z,99514.63
2022-11-22T22:23:19.491Z,99513.59
2022-11-22T22:26:21.066Z,99515.06
2022-11-22T22:29:22.724Z,99508.69
2022-11-22T22:32:25.574Z,99513.09
2022-11-22T22:35:27.148Z,99507.81
2022-11-22T22:38:31.847Z,99514.78
2022-11-22T22:41:33.409Z,99519.13
2022-11-22T22:44:35.011Z,99524.19
2022-11-22T22:47:36.555Z,99518.75
2022-11-22T22:50:38.112Z,99526.38
2022-11-22T22:53:40.261Z,99529.69
2022-11-22T22:56:43.519Z,99534.81
2022-11-22T22:59:45.155Z,99525.78
2022-11-22T23:02:46.755Z,99522.13
2022-11-22T23:05:48.566Z,99517.56
2022-11-22T23:08:51.624Z,99514.66
2022-11-22T23:12:11.160Z,99517.94
2022-11-22T23:15:12.693Z,99520.34
2022-11-22T23:18:14.240Z,99513.09
2022-11-22T23:21:16.122Z,99522.41
2022-11-22T23:24:17.730Z,99516.13
2022-11-22T23:27:19.342Z,99520.25
2022-11-22T23:30:20.896Z,99514.81
2022-11-22T23:33:22.410Z,99509.47
2022-11-22T23:36:24.109Z,99519.91
2022-11-22T23:39:25.649Z,99510.13
2022-11-22T23:42:27.192Z,99517.19
2022-11-22T23:45:28.736Z,99521.53
2022-11-22T23:48:30.305Z,99516.16
2022-11-22T23:51:33.156Z,99519.53
2022-11-22T23:54:34.687Z,99526.34
2022-11-22T23:57:36.247Z,99522.75
